Time;durP1;ratioP1;P1;durP2;ratioP2;P2;SDS_P1;SDS_P2;PMS_P1;PMS_P2;Temp;Humidity;BMP_temperature;BMP_pressure;BME280_temperature;BME280_humidity;BME280_pressure;Samples;Min_cycle;Max_cycle;Signal;HPM_P1;HPM_P2
2022/11/12 00:01:17;;;;;;;34.45;29.48;;;;;;;5.42;100.00;103053.50;5003522;28;20023;-76
2022/11/12 00:03:43;;;;;;;36.00;30.13;;;;;;;5.44;100.00;103054.34;4987403;28;20049;-76
2022/11/12 00:06:08;;;;;;;36.85;28.67;;;;;;;5.40;100.00;103055.28;4977574;28;20029;-76
2022/11/12 00:08:34;;;;;;;36.85;29.65;;;;;;;5.42;100.00;103061.34;4986755;28;20036;-76
2022/11/12 00:10:59;;;;;;;36.50;30.00;;;;;;;5.46;100.00;103059.53;4989103;28;20057;-76
2022/11/12 00:13:24;;;;;;;37.50;31.63;;;;;;;5.51;100.00;103068.16;5003655;28;20058;-77
2022/11/12 00:15:50;;;;;;;39.15;31.80;;;;;;;5.53;100.00;103062.00;4992131;28;20022;-76
2022/11/12 00:18:15;;;;;;;40.00;32.55;;;;;;;5.52;100.00;103062.91;4992837;28;20034;-77
2022/11/12 00:20:40;;;;;;;39.03;30.98;;;;;;;5.56;100.00;103066.31;4991414;28;20018;-76
2022/11/12 00:23:06;;;;;;;36.53;30.55;;;;;;;5.59;100.00;103072.34;5007432;28;20030;-76
2022/11/12 00:25:34;;;;;;;39.33;31.15;;;;;;;5.60;100.00;103070.59;4992312;28;20027;-76
2022/11/12 00:28:02;;;;;;;38.13;31.05;;;;;;;5.61;100.00;103070.59;5007130;28;20489;-78
2022/11/12 00:30:27;;;;;;;39.47;33.15;;;;;;;5.63;100.00;103071.44;4992721;28;20038;-78
2022/11/12 00:32:53;;;;;;;37.95;33.67;;;;;;;5.63;100.00;103076.66;4991778;28;20052;-78
2022/11/12 00:35:18;;;;;;;40.38;34.08;;;;;;;5.63;100.00;103074.03;4991610;28;20053;-78
2022/11/12 00:37:43;;;;;;;39.28;33.38;;;;;;;5.64;100.00;103080.97;4991112;28;20391;-78
2022/11/12 00:40:09;;;;;;;36.65;32.75;;;;;;;5.60;100.00;103081.03;4993305;28;20026;-78
2022/11/12 00:42:34;;;;;;;42.50;34.03;;;;;;;5.58;100.00;103078.44;4991858;28;20026;-75
2022/11/12 00:45:00;;;;;;;36.33;32.42;;;;;;;5.55;100.00;103065.44;4991866;28;20439;-76
2022/11/12 00:47:25;;;;;;;38.20;31.92;;;;;;;5.48;100.00;103069.06;4972301;28;20454;-78
2022/11/12 00:49:51;;;;;;;34.65;30.58;;;;;;;5.45;100.00;103061.28;5006261;28;20040;-77
2022/11/12 00:52:16;;;;;;;34.58;30.83;;;;;;;5.39;100.00;103064.00;4991242;28;20022;-77
2022/11/12 00:54:41;;;;;;;37.08;31.08;;;;;;;5.42;100.00;103066.56;4991732;28;20495;-76
2022/11/12 00:57:07;;;;;;;35.25;29.60;;;;;;;5.47;100.00;103066.47;4992322;28;20018;-77
2022/11/12 00:59:35;;;;;;;33.92;29.67;;;;;;;5.42;100.00;103063.09;4992519;28;20085;-76
2022/11/12 01:02:00;;;;;;;33.47;28.90;;;;;;;5.43;100.00;103059.59;4992510;28;20030;-76
2022/11/12 01:04:26;;;;;;;32.80;28.45;;;;;;;5.46;100.00;103063.00;4992069;28;20476;-76
2022/11/12 01:06:51;;;;;;;33.15;28.60;;;;;;;5.47;100.00;103074.31;4991829;28;20119;-77
2022/11/12 01:09:16;;;;;;;34.78;29.10;;;;;;;5.44;100.00;103059.56;4990132;28;20097;-77
2022/11/12 01:11:42;;;;;;;33.63;29.08;;;;;;;5.41;100.00;103062.22;4991815;28;20509;-77
2022/11/12 01:14:08;;;;;;;30.80;27.55;;;;;;;5.42;100.00;103063.09;4991866;28;20515;-77
2022/11/12 01:16:41;;;;;;;32.13;28.50;;;;;;;5.29;100.00;103063.28;4990392;28;20033;-77
2022/11/12 01:19:09;;;;;;;30.02;26.83;;;;;;;5.27;100.00;103059.00;4991322;28;20030;-77
2022/11/12 01:21:39;;;;;;;29.27;25.95;;;;;;;5.22;100.00;103051.25;4990851;28;20037;-77
2022/11/12 01:24:04;;;;;;;28.38;24.45;;;;;;;5.16;100.00;103060.88;4990889;28;20067;-77
2022/11/12 01:26:33;;;;;;;27.88;24.98;;;;;;;5.07;100.00;103066.25;4988854;28;20027;-77
2022/11/12 01:28:58;;;;;;;29.35;26.10;;;;;;;5.01;100.00;103062.84;4990454;28;20438;-77
2022/11/12 01:31:29;;;;;;;28.90;24.23;;;;;;;4.98;100.00;103064.66;4991024;28;20026;-77
2022/11/12 01:33:58;;;;;;;27.52;24.52;;;;;;;4.93;100.00;103058.66;4990448;28;20030;-76
2022/11/12 01:36:25;;;;;;;29.27;25.10;;;;;;;4.84;100.00;103064.88;4991460;28;20030;-77
2022/11/12 01:38:51;;;;;;;27.52;24.40;;;;;;;4.85;100.00;103052.69;5005186;28;20202;-77
2022/11/12 01:41:26;;;;;;;28.40;24.90;;;;;;;4.81;100.00;103059.69;4991331;28;20023;-76
2022/11/12 01:44:10;;;;;;;26.92;24.02;;;;;;;4.81;100.00;103054.47;4990496;28;20034;-77
2022/11/12 01:47:14;;;;;;;26.83;23.50;;;;;;;4.75;100.00;103054.53;4974180;28;20026;-77
2022/11/12 01:49:45;;;;;;;;;;;;;;;4.86;100.00;103051.81;4971516;28;20030;-76
2022/11/12 01:52:39;;;;;;;29.20;24.98;;;;;;;4.68;100.00;103052.91;4990981;28;20049;-83
2022/11/12 01:55:08;;;;;;;25.92;23.20;;;;;;;4.48;100.00;103055.81;4988563;28;20050;-83
2022/11/12 01:57:40;;;;;;;26.20;23.40;;;;;;;4.46;100.00;103041.06;4990275;28;20126;-83
2022/11/12 02:00:10;;;;;;;27.35;24.38;;;;;;;4.39;100.00;103048.94;4986007;28;20030;-83
2022/11/12 02:02:36;;;;;;;28.33;24.52;;;;;;;4.32;100.00;103055.13;4970074;28;20023;-84
2022/11/12 02:05:04;;;;;;;28.30;23.73;;;;;;;4.30;100.00;103048.19;4976074;28;20109;-83
2022/11/12 02:07:31;;;;;;;25.05;22.35;;;;;;;4.30;100.00;103051.66;4990452;28;20026;-84
2022/11/12 02:10:00;;;;;;;25.95;22.67;;;;;;;4.22;100.00;103058.72;4991404;28;20037;-83
2022/11/12 02:15:09;;;;;;;27.52;23.25;;;;;;;4.24;100.00;103043.06;4991758;28;20105;-76
2022/11/12 02:17:35;;;;;;;26.13;23.10;;;;;;;4.22;100.00;103047.44;5000052;28;20031;-77
2022/11/12 02:20:00;;;;;;;25.80;21.50;;;;;;;4.19;100.00;103047.47;4971680;28;20102;-83
2022/11/12 02:22:26;;;;;;;25.92;22.33;;;;;;;4.15;100.00;103051.00;4972277;28;20045;-76
2022/11/12 02:24:51;;;;;;;25.13;22.45;;;;;;;4.15;100.00;103057.06;4971332;28;20551;-76
2022/11/12 02:27:17;;;;;;;26.45;23.27;;;;;;;4.12;100.00;103051.91;4971248;28;20046;-83
2022/11/12 02:29:45;;;;;;;26.13;23.40;;;;;;;4.07;100.00;103054.56;4971984;28;20027;-76
2022/11/12 02:32:12;;;;;;;25.77;23.05;;;;;;;4.04;100.00;103054.59;4972112;28;20037;-76
2022/11/12 02:34:38;;;;;;;26.05;23.25;;;;;;;4.00;100.00;103046.81;4989299;28;20065;-83
2022/11/12 02:37:04;;;;;;;25.80;22.73;;;;;;;4.00;100.00;103046.81;4992035;28;20022;-84
2022/11/12 02:39:29;;;;;;;27.88;21.83;;;;;;;3.97;100.00;103052.06;4991132;28;20041;-78
2022/11/12 02:41:55;;;;;;;24.63;21.90;;;;;;;3.94;100.00;103052.09;4989445;28;20019;-77
2022/11/12 02:44:20;;;;;;;24.88;22.27;;;;;;;3.93;100.00;103046.00;4990098;28;20044;-84
2022/11/12 02:46:45;;;;;;;25.15;22.38;;;;;;;3.93;100.00;103037.34;4989180;28;20023;-77
2022/11/12 02:49:11;;;;;;;24.80;21.25;;;;;;;3.96;100.00;103045.97;5004561;28;20410;-77
2022/11/12 02:51:36;;;;;;;25.15;21.35;;;;;;;3.92;100.00;103038.22;4999622;28;20500;-76
2022/11/12 02:54:01;;;;;;;24.25;21.65;;;;;;;3.93;100.00;103030.41;4970624;28;20510;-77
2022/11/12 02:56:27;;;;;;;24.60;21.95;;;;;;;3.86;100.00;103039.16;4970234;28;20472;-77
2022/11/12 02:58:52;;;;;;;25.20;22.02;;;;;;;3.83;100.00;103030.53;4970183;28;20037;-84
2022/11/12 03:01:17;;;;;;;25.80;21.83;;;;;;;3.81;100.00;103030.53;4969380;28;20110;-77
2022/11/12 03:03:43;;;;;;;25.75;22.92;;;;;;;3.80;100.00;103022.75;4988412;28;20057;-76
2022/11/12 03:06:08;;;;;;;23.65;21.10;;;;;;;3.81;100.00;103024.47;4989962;28;20101;-84
2022/11/12 03:08:33;;;;;;;25.20;21.73;;;;;;;3.74;100.00;103029.75;4987643;28;20030;-76
2022/11/12 03:11:05;;;;;;;23.98;21.38;;;;;;;3.74;100.00;103034.94;4989554;28;20081;-76
2022/11/12 03:13:30;;;;;;;23.55;21.08;;;;;;;3.72;100.00;103031.50;4989602;28;20026;-76
2022/11/12 03:15:59;;;;;;;22.92;20.52;;;;;;;3.69;100.00;103026.31;4988162;28;20032;-76
2022/11/12 03:18:25;;;;;;;23.98;21.17;;;;;;;3.66;100.00;103030.72;4990272;28;20058;-82
2022/11/12 03:20:51;;;;;;;24.60;21.73;;;;;;;3.63;100.00;103042.00;4989114;28;20116;-76
2022/11/12 03:23:16;;;;;;;25.33;21.55;;;;;;;3.63;100.00;103043.75;4988304;28;20033;-76
2022/11/12 03:25:41;;;;;;;25.05;21.20;;;;;;;3.62;100.00;103044.63;4988621;28;20022;-76
2022/11/12 03:28:12;;;;;;;25.73;21.30;;;;;;;3.60;100.00;103052.47;4990214;28;20446;-76
2022/11/12 03:30:40;;;;;;;24.13;20.60;;;;;;;3.59;100.00;103049.84;4989297;28;20379;-76
2022/11/12 03:33:08;;;;;;;24.70;22.10;;;;;;;3.58;100.00;103046.38;4989577;28;20470;-83
2022/11/12 03:35:34;;;;;;;24.25;20.80;;;;;;;3.61;100.00;103045.50;4988726;28;20031;-76
2022/11/12 03:37:59;;;;;;;23.88;21.13;;;;;;;3.59;100.00;103050.69;5005268;28;20023;-84
2022/11/12 03:40:24;;;;;;;23.25;20.77;;;;;;;3.60;100.00;103047.25;4989602;28;20442;-83
2022/11/12 03:42:51;;;;;;;23.95;21.20;;;;;;;3.58;100.00;103051.56;4989626;28;20034;-76
2022/11/12 03:45:18;;;;;;;24.55;20.38;;;;;;;3.64;100.00;103051.53;4989419;28;20383;-76
2022/11/12 03:47:45;;;;;;;22.92;20.23;;;;;;;3.74;100.00;103055.78;5004094;28;20030;-76
2022/11/12 03:50:13;;;;;;;22.35;19.92;;;;;;;3.73;100.00;103053.19;4986999;28;20058;-83
2022/11/12 03:52:42;;;;;;;22.35;19.88;;;;;;;3.82;100.00;103055.69;4993272;28;20046;-76
2022/11/12 03:55:08;;;;;;;22.88;19.52;;;;;;;3.86;100.00;103048.72;4994056;28;20054;-84
2022/11/12 03:57:33;;;;;;;22.38;19.95;;;;;;;3.89;100.00;103049.53;4992078;28;20023;-76
2022/11/12 03:59:58;;;;;;;21.92;19.10;;;;;;;3.91;100.00;103052.97;4990975;28;20033;-77
2022/11/12 04:02:25;;;;;;;21.65;19.10;;;;;;;3.88;100.00;103053.03;4992576;28;20053;-76
2022/11/12 04:10:20;;;;;;;21.00;17.48;;;;;;;3.93;100.00;103039.94;4995399;28;20057;-83
2022/11/12 04:15:33;;;;;;;21.05;17.75;;;;;;;4.04;100.00;103032.91;4998234;28;20053;-84
2022/11/12 04:23:34;;;;;;;19.48;16.33;;;;;;;3.93;100.00;103026.94;4964947;28;20110;-85
2022/11/12 04:30:14;;;;;;;16.77;14.98;;;;;;;3.91;100.00;103016.53;4974125;28;20097;-77
2022/11/12 04:31:28;;;;;;;19.70;16.48;;;;;;;3.82;100.00;103015.78;4978388;28;20048;-77
2022/11/12 04:33:54;;;;;;;18.40;15.50;;;;;;;3.85;100.00;103026.16;4992015;28;20023;-77
2022/11/12 04:36:19;;;;;;;18.92;14.98;;;;;;;3.74;100.00;103023.66;4990658;28;20031;-77
2022/11/12 04:38:45;;;;;;;17.38;14.73;;;;;;;3.71;100.00;103019.38;4976549;28;20066;-83
2022/11/12 04:46:38;;;;;;;17.88;15.25;;;;;;;3.58;100.00;103028.16;4989614;28;20105;-77
2022/11/12 04:49:03;;;;;;;16.33;14.60;;;;;;;3.54;100.00;103034.25;4999357;28;20022;-77
2022/11/12 04:54:13;;;;;;;16.67;14.75;;;;;;;3.41;100.00;103024.88;4992775;28;20165;-77
2022/11/12 04:56:38;;;;;;;15.77;13.90;;;;;;;3.49;100.00;103017.84;4991312;28;20113;-77
2022/11/12 04:59:03;;;;;;;16.20;14.50;;;;;;;3.40;100.00;103007.53;4992876;28;20026;-77
2022/11/12 05:01:29;;;;;;;16.65;14.65;;;;;;;3.31;100.00;103007.63;4991379;28;20033;-78
2022/11/12 05:03:54;;;;;;;18.58;15.77;;;;;;;3.25;100.00;103005.94;4992624;28;20037;-84
2022/11/12 05:09:03;;;;;;;15.88;14.20;;;;;;;3.27;100.00;103011.13;4991532;28;20037;-77
2022/11/12 05:11:28;;;;;;;17.20;14.25;;;;;;;3.32;100.00;103006.75;4993059;28;20390;-77
2022/11/12 05:13:54;;;;;;;17.15;13.77;;;;;;;3.26;100.00;102997.25;4991601;28;20030;-85
2022/11/12 05:16:19;;;;;;;16.40;14.60;;;;;;;3.24;100.00;103000.75;4992492;28;20278;-84
2022/11/12 05:18:44;;;;;;;17.15;14.15;;;;;;;3.22;100.00;102990.34;4992004;28;20038;-77
2022/11/12 05:23:54;;;;;;;17.83;15.13;;;;;;;3.26;100.00;102999.00;4989135;28;20093;-84
2022/11/12 05:26:19;;;;;;;16.48;14.73;;;;;;;3.21;100.00;102995.56;4991964;28;20022;-77
2022/11/12 05:28:44;;;;;;;17.00;15.20;;;;;;;3.21;100.00;102991.22;4990745;28;20038;-77
2022/11/12 05:31:10;;;;;;;15.90;13.65;;;;;;;3.29;100.00;102996.38;5006068;28;20612;-77
2022/11/12 05:33:35;;;;;;;15.50;13.82;;;;;;;3.22;100.00;102992.09;4989566;28;20026;-77
2022/11/12 05:36:00;;;;;;;16.67;14.38;;;;;;;3.26;100.00;102988.59;4991547;28;20038;-77
2022/11/12 05:38:26;;;;;;;14.65;13.25;;;;;;;3.25;100.00;102992.06;4991233;28;20045;-77
2022/11/12 05:40:51;;;;;;;15.82;13.98;;;;;;;3.19;100.00;102986.88;5004032;28;20639;-77
2022/11/12 05:43:16;;;;;;;17.17;13.77;;;;;;;3.18;100.00;102985.16;4990750;28;20034;-77
2022/11/12 05:45:42;;;;;;;14.98;12.90;;;;;;;3.13;100.00;102983.47;4989836;28;20042;-77
2022/11/12 05:48:08;;;;;;;15.18;13.60;;;;;;;3.07;100.00;102987.88;4991082;28;20037;-77
2022/11/12 05:50:33;;;;;;;15.35;13.50;;;;;;;3.07;100.00;102987.88;4996168;28;20022;-77
2022/11/12 05:52:58;;;;;;;15.73;13.27;;;;;;;3.05;100.00;102993.09;4993066;28;20026;-78
2022/11/12 05:55:24;;;;;;;15.43;13.35;;;;;;;3.05;100.00;102995.69;4990587;28;20042;-77
2022/11/12 05:57:49;;;;;;;14.55;13.05;;;;;;;3.00;100.00;102992.25;4988159;28;20293;-77
2022/11/12 06:00:15;;;;;;;15.52;13.13;;;;;;;3.02;100.00;102993.09;4990938;28;20030;-77
2022/11/12 06:02:41;;;;;;;16.17;12.82;;;;;;;3.06;100.00;102992.22;4990482;28;20030;-77
2022/11/12 06:05:07;;;;;;;14.30;12.80;;;;;;;3.07;100.00;102993.94;4990361;28;20037;-84
2022/11/12 06:07:35;;;;;;;14.98;13.18;;;;;;;3.02;100.00;102995.72;4990874;28;20022;-84
2022/11/12 06:10:00;;;;;;;15.63;12.88;;;;;;;2.99;100.00;102987.94;4991562;28;20026;-84
2022/11/12 06:12:30;;;;;;;17.45;13.63;;;;;;;2.98;100.00;102983.63;4999339;28;20556;-77
2022/11/12 06:14:55;;;;;;;16.70;12.85;;;;;;;3.02;100.00;102985.31;5001111;28;20046;-77
2022/11/12 06:17:20;;;;;;;14.65;12.95;;;;;;;2.97;100.00;102987.09;4989154;28;20058;-75
2022/11/12 06:19:46;;;;;;;16.88;12.90;;;;;;;2.95;100.00;102991.44;4989331;28;20026;-76
2022/11/12 06:22:11;;;;;;;18.50;13.60;;;;;;;2.93;100.00;102995.78;4990625;28;20018;-84
2022/11/12 06:24:36;;;;;;;14.95;12.75;;;;;;;2.93;100.00;102993.19;4990555;28;20018;-84
2022/11/12 06:27:02;;;;;;;14.90;12.75;;;;;;;2.95;100.00;102999.25;4989192;28;20022;-77
2022/11/12 06:29:28;;;;;;;14.80;12.95;;;;;;;2.87;100.00;103000.19;4988240;28;20044;-77
2022/11/12 06:31:54;;;;;;;16.90;12.80;;;;;;;2.88;100.00;103001.91;5005173;28;20030;-77
2022/11/12 06:34:19;;;;;;;14.30;12.80;;;;;;;2.85;100.00;102997.59;4989531;28;20390;-77
2022/11/12 06:36:47;;;;;;;15.95;12.88;;;;;;;2.85;100.00;103008.00;4987883;28;20018;-84
2022/11/12 06:39:12;;;;;;;14.38;12.70;;;;;;;2.81;100.00;103006.28;4990374;28;20048;-85
2022/11/12 06:41:38;;;;;;;14.88;12.52;;;;;;;2.84;100.00;102998.47;4991560;28;20038;-84
2022/11/12 06:44:04;;;;;;;17.77;13.70;;;;;;;2.81;100.00;102998.50;4998198;28;20043;-77
2022/11/12 06:46:29;;;;;;;14.45;12.80;;;;;;;2.88;100.00;103013.16;4999578;28;20133;-77
2022/11/12 06:48:54;;;;;;;17.63;13.00;;;;;;;2.82;100.00;103008.88;4988557;28;20030;-85
2022/11/12 06:51:20;;;;;;;18.27;13.80;;;;;;;2.86;100.00;103009.72;4990642;28;20026;-78
2022/11/12 06:53:46;;;;;;;16.20;13.05;;;;;;;2.85;100.00;103013.19;5004290;28;20046;-75
2022/11/12 06:56:12;;;;;;;14.90;13.23;;;;;;;2.88;100.00;103013.16;4989214;28;20580;-76
2022/11/12 06:58:38;;;;;;;15.40;13.60;;;;;;;2.91;100.00;103017.47;4987391;28;20023;-77
2022/11/12 07:01:06;;;;;;;14.75;13.23;;;;;;;2.91;100.00;103015.75;4986679;28;20030;-82
2022/11/12 07:03:31;;;;;;;14.77;13.25;;;;;;;2.94;100.00;103013.13;4989613;28;20026;-83
2022/11/12 07:05:57;;;;;;;15.38;13.23;;;;;;;2.90;100.00;103016.63;4989869;28;20033;-83
2022/11/12 07:08:23;;;;;;;14.30;12.68;;;;;;;2.92;100.00;103009.66;5004408;28;20034;-83
2022/11/12 07:10:48;;;;;;;17.40;13.35;;;;;;;2.96;100.00;103015.69;4989455;28;20033;-83
2022/11/12 07:13:14;;;;;;;16.00;12.95;;;;;;;2.96;100.00;103016.56;4989351;28;20034;-83
2022/11/12 07:15:40;;;;;;;17.00;12.85;;;;;;;2.94;100.00;103013.13;4988233;28;20041;-74
2022/11/12 07:18:05;;;;;;;15.00;12.63;;;;;;;2.99;100.00;103016.53;4986555;28;20479;-75
2022/11/12 07:20:34;;;;;;;15.60;13.15;;;;;;;3.03;100.00;103013.03;4988292;28;20057;-74
2022/11/12 07:23:02;;;;;;;14.55;12.50;;;;;;;3.05;100.00;103019.09;4989491;28;20546;-75
2022/11/12 07:25:28;;;;;;;16.27;13.48;;;;;;;3.06;100.00;103012.16;5008411;28;20462;-82
2022/11/12 07:27:54;;;;;;;16.45;13.27;;;;;;;3.11;100.00;103013.84;4993331;28;20050;-76
2022/11/12 07:30:19;;;;;;;18.45;13.32;;;;;;;3.14;100.00;103008.59;4993337;28;20037;-82
2022/11/12 07:32:45;;;;;;;14.25;12.70;;;;;;;3.17;100.00;103009.44;4998312;28;20030;-81
2022/11/12 07:35:10;;;;;;;14.27;12.77;;;;;;;3.26;100.00;103012.00;5010002;28;20037;-81
2022/11/12 07:37:36;;;;;;;16.75;13.20;;;;;;;3.31;100.00;103023.22;4991767;28;20034;-81
2022/11/12 07:40:03;;;;;;;18.30;13.27;;;;;;;3.34;100.00;103023.19;4994373;28;20034;-76
2022/11/12 07:42:34;;;;;;;17.45;13.93;;;;;;;3.41;100.00;103020.53;4992997;28;20381;-76
2022/11/12 07:44:59;;;;;;;16.65;13.40;;;;;;;3.47;100.00;103027.41;4992388;28;20077;-76
2022/11/12 07:47:26;;;;;;;18.55;14.02;;;;;;;3.52;100.00;103024.75;4994335;28;20026;-76
2022/11/12 07:49:51;;;;;;;17.75;15.10;;;;;;;3.59;100.00;103023.81;4993209;28;20058;-76
2022/11/12 07:52:16;;;;;;;18.48;14.55;;;;;;;3.70;100.00;103024.59;4993474;28;20061;-76
2022/11/12 07:54:42;;;;;;;21.58;15.35;;;;;;;3.73;100.00;103022.81;4988360;28;20097;-76
2022/11/12 07:57:07;;;;;;;17.48;14.27;;;;;;;3.77;100.00;103027.09;4992745;28;20035;-75
2022/11/12 07:59:32;;;;;;;18.40;15.02;;;;;;;3.87;100.00;103032.22;4991702;28;20062;-75
2022/11/12 08:01:58;;;;;;;19.65;15.43;;;;;;;3.93;100.00;103034.75;4993888;28;20106;-75
2022/11/12 08:04:23;;;;;;;22.17;16.02;;;;;;;4.05;100.00;103034.63;4992182;28;20428;-81
2022/11/12 08:06:48;;;;;;;18.80;15.95;;;;;;;4.10;100.00;103030.22;4993032;28;20029;-82
2022/11/12 08:09:14;;;;;;;20.30;16.27;;;;;;;4.16;100.00;103030.13;4993811;28;20490;-76
2022/11/12 08:11:40;;;;;;;19.05;15.18;;;;;;;4.20;100.00;103042.25;4989226;28;20532;-76
2022/11/12 08:14:06;;;;;;;20.05;16.02;;;;;;;4.31;100.00;103032.53;4993259;28;20022;-76
2022/11/12 08:16:31;;;;;;;18.85;15.88;;;;;;;4.34;100.00;103037.72;4992722;28;20034;-76
2022/11/12 08:18:57;;;;;;;21.55;15.90;;;;;;;4.37;100.00;103040.28;4992312;28;20165;-82
2022/11/12 08:21:22;;;;;;;19.65;15.68;;;;;;;4.54;100.00;103044.44;4993146;28;20419;-76
2022/11/12 08:23:48;;;;;;;18.73;15.05;;;;;;;4.53;100.00;103047.91;4992405;28;20026;-76
2022/11/12 08:26:18;;;;;;;18.23;15.55;;;;;;;4.61;100.00;103051.28;5006844;28;20491;-76
2022/11/12 08:28:45;;;;;;;19.17;16.00;;;;;;;4.68;100.00;103045.09;4990305;28;20026;-76
2022/11/12 08:31:13;;;;;;;21.70;16.75;;;;;;;4.79;100.00;103048.41;4992675;28;20097;-76
2022/11/12 08:33:39;;;;;;;21.13;16.15;;;;;;;4.88;100.00;103044.81;4991598;28;20088;-76
2022/11/12 08:36:07;;;;;;;20.98;15.77;;;;;;;4.95;100.00;103052.53;4992337;28;20026;-77
2022/11/12 08:38:33;;;;;;;23.23;16.08;;;;;;;5.04;100.00;103041.94;4992199;28;20030;-82
2022/11/12 08:41:07;;;;;;;17.67;15.77;;;;;;;5.20;100.00;103039.06;4991809;28;20073;-76
2022/11/12 08:43:36;;;;;;;22.50;15.80;;;;;;;5.33;100.00;103040.63;4992161;28;20026;-77
2022/11/12 08:46:03;;;;;;;17.40;15.50;;;;;;;5.45;100.00;103044.75;4986557;28;20113;-77
2022/11/12 08:48:33;;;;;;;18.98;15.02;;;;;;;5.50;100.00;103038.56;5007021;28;20062;-77
2022/11/12 08:51:03;;;;;;;20.23;15.68;;;;;;;5.65;100.00;103053.97;4991599;28;20417;-77
2022/11/12 08:53:29;;;;;;;20.40;15.30;;;;;;;5.75;100.00;103056.41;4992841;28;20022;-77
2022/11/12 08:55:55;;;;;;;18.15;14.73;;;;;;;5.78;100.00;103045.91;4992018;28;20050;-83
2022/11/12 08:58:22;;;;;;;20.70;14.07;;;;;;;5.88;100.00;103050.94;4993175;28;20030;-77
2022/11/12 09:00:49;;;;;;;16.02;13.77;;;;;;;5.98;100.00;103047.28;4988699;28;20105;-76
2022/11/12 09:03:20;;;;;;;17.13;13.77;;;;;;;6.16;100.00;103043.44;4992860;28;20026;-82
2022/11/12 09:05:46;;;;;;;18.73;15.02;;;;;;;6.28;100.00;103037.09;4990968;28;20364;-77
2022/11/12 09:08:17;;;;;;;15.20;13.43;;;;;;;6.43;100.00;103041.16;4992117;28;20037;-77
2022/11/12 09:10:42;;;;;;;18.15;13.02;;;;;;;6.55;100.00;103035.66;4991717;28;20058;-77
2022/11/12 09:13:08;;;;;;;14.32;12.73;;;;;;;6.72;100.00;103036.13;4992691;28;20518;-77
2022/11/12 09:15:34;;;;;;;13.98;12.05;;;;;;;6.83;100.00;103036.78;4991369;28;20030;-77
2022/11/12 09:18:02;;;;;;;14.40;11.35;;;;;;;7.00;100.00;103038.13;4992577;28;20026;-77
2022/11/12 09:20:28;;;;;;;15.30;11.60;;;;;;;7.14;100.00;103044.72;4990546;28;20080;-77
2022/11/12 09:22:59;;;;;;;15.88;11.60;;;;;;;7.31;99.15;103044.34;4991105;28;20030;-77
2022/11/12 09:25:24;;;;;;;14.50;10.18;;;;;;;7.44;97.76;103040.50;4992311;28;20034;-77
2022/11/12 09:27:49;;;;;;;15.57;10.70;;;;;;;7.59;96.61;103043.59;4991296;28;20438;-83
2022/11/12 09:30:15;;;;;;;13.43;10.65;;;;;;;7.77;96.87;103038.75;4990088;28;20128;-77
2022/11/12 09:32:41;;;;;;;14.82;11.02;;;;;;;7.89;97.48;103040.16;4990934;28;20026;-82
2022/11/12 09:35:07;;;;;;;16.67;10.80;;;;;;;7.96;96.06;103040.84;4994089;28;20026;-82
2022/11/12 09:37:38;;;;;;;13.52;10.38;;;;;;;8.04;94.20;103045.00;4990763;28;20050;-82
2022/11/12 09:40:05;;;;;;;11.77;10.07;;;;;;;8.14;91.93;103046.47;4991559;28;20427;-82
2022/11/12 09:42:35;;;;;;;12.23;10.00;;;;;;;8.23;91.21;103036.59;4991404;28;20479;-78
2022/11/12 09:45:17;;;;;;;14.20;10.40;;;;;;;8.33;91.94;103033.69;4990801;28;20077;-82
2022/11/12 09:47:47;;;;;;;11.98;9.50;;;;;;;8.38;91.83;103037.03;4990110;28;20046;-76
2022/11/12 09:50:26;;;;;;;16.92;10.40;;;;;;;8.48;92.05;103040.28;4990494;28;20084;-77
2022/11/12 09:53:02;;;;;;;11.80;9.68;;;;;;;8.57;89.57;103032.13;4985359;28;20042;-76
2022/11/12 09:55:33;;;;;;;13.82;9.55;;;;;;;8.71;90.67;103039.56;4972041;28;20042;-82
2022/11/12 09:57:58;;;;;;;14.70;10.80;;;;;;;8.84;90.77;103040.06;4971480;28;20523;-76
2022/11/12 10:00:23;;;;;;;14.95;11.10;;;;;;;8.84;89.67;103035.66;4972006;28;20076;-76
2022/11/12 10:03:26;;;;;;;14.93;10.98;;;;;;;8.95;90.25;103037.94;4971054;28;20571;-77
2022/11/12 10:06:01;;;;;;;15.40;11.82;;;;;;;9.03;88.87;103042.03;4970992;28;20743;-76
2022/11/12 10:08:38;;;;;;;13.68;10.57;;;;;;;9.06;88.77;103038.44;4971906;28;20026;-76
2022/11/12 10:11:19;;;;;;;14.73;11.02;;;;;;;9.19;88.89;103031.88;4991455;28;20069;-77
2022/11/12 10:14:37;;;;;;;16.02;11.00;;;;;;;9.30;90.31;103035.03;4991208;28;20027;-81
2022/11/12 10:17:18;;;;;;;16.23;11.52;;;;;;;9.37;89.53;103023.41;4982183;28;20072;-77
2022/11/12 10:20:15;;;;;;;13.90;10.55;;;;;;;9.46;89.38;103026.63;4989820;28;20078;-77
2022/11/12 10:22:43;;;;;;;13.48;10.18;;;;;;;9.56;86.97;103020.13;4992090;28;20071;-76
2022/11/12 10:25:15;;;;;;;12.18;10.18;;;;;;;9.68;86.02;103027.59;4991904;28;20030;-82
2022/11/12 10:27:41;;;;;;;12.50;9.55;;;;;;;9.73;87.91;103023.88;4984663;28;20027;-76
2022/11/12 10:30:18;;;;;;;13.07;10.00;;;;;;;9.86;85.83;103019.03;4991441;28;20101;-77
2022/11/12 10:32:46;;;;;;;14.18;10.10;;;;;;;9.97;85.87;103016.88;4989908;28;20030;-82
2022/11/12 10:35:15;;;;;;;18.20;10.18;;;;;;;10.09;85.18;103023.47;4992073;28;20494;-82
2022/11/12 10:37:55;;;;;;;13.23;10.20;;;;;;;10.19;86.67;103023.97;4990810;28;20030;-76
2022/11/12 10:40:21;;;;;;;13.10;8.95;;;;;;;10.33;82.31;103019.09;4991218;28;20034;-76
2022/11/12 10:42:59;;;;;;;10.07;8.43;;;;;;;10.47;83.21;103010.69;4989043;28;20144;-76
2022/11/12 10:45:25;;;;;;;11.82;8.48;;;;;;;10.57;83.10;103010.25;4989465;28;20482;-81
2022/11/12 10:47:50;;;;;;;9.40;8.35;;;;;;;10.69;83.54;103011.53;4989706;28;20029;-82
2022/11/12 10:50:35;;;;;;;8.77;7.68;;;;;;;10.80;82.39;103011.09;4991382;28;20391;-81
2022/11/12 10:53:03;;;;;;;10.20;8.02;;;;;;;10.91;81.78;103011.53;4990805;28;20026;-78
2022/11/12 10:55:34;;;;;;;9.18;7.78;;;;;;;10.99;81.02;103007.66;4990745;28;20172;-77
2022/11/12 10:58:08;;;;;;;10.50;7.90;;;;;;;11.09;79.90;103007.28;4990777;28;20018;-82
2022/11/12 11:00:35;;;;;;;10.32;7.80;;;;;;;11.19;81.07;103001.56;4987874;28;20045;-77
2022/11/12 11:03:35;;;;;;;10.90;8.13;;;;;;;11.30;81.16;102995.84;4990289;28;20026;-76
2022/11/12 11:06:06;;;;;;;10.05;8.07;;;;;;;11.43;78.02;102991.75;4990375;28;20117;-81
2022/11/12 11:08:33;;;;;;;9.10;7.60;;;;;;;11.53;76.43;102989.56;4989690;28;20027;-81
2022/11/12 11:11:29;;;;;;;9.60;7.55;;;;;;;11.64;78.92;102990.00;4991207;28;20438;-81
2022/11/12 11:13:57;;;;;;;8.95;7.28;;;;;;;11.70;76.23;102989.72;4980981;28;20138;-75
2022/11/12 11:16:25;;;;;;;9.32;7.68;;;;;;;11.83;75.63;102990.91;4988168;28;20023;-81
2022/11/12 11:18:56;;;;;;;13.07;7.75;;;;;;;11.92;73.99;102987.84;4989445;28;20058;-76
2022/11/12 11:21:43;;;;;;;9.07;7.07;;;;;;;12.01;76.50;102993.63;4989389;28;20022;-75
2022/11/12 11:24:34;;;;;;;9.77;7.40;;;;;;;12.14;74.40;102987.72;4990053;28;20033;-77
2022/11/12 11:27:24;;;;;;;9.77;7.38;;;;;;;12.26;74.10;102975.75;4988768;28;20038;-77
2022/11/12 11:30:09;;;;;;;10.45;7.47;;;;;;;12.36;74.33;102977.00;4988653;28;20100;-76
2022/11/12 11:32:54;;;;;;;7.53;6.40;;;;;;;12.47;73.22;102979.16;4989340;28;20467;-76
2022/11/12 11:35:25;;;;;;;9.82;7.05;;;;;;;12.52;72.15;102977.16;4987383;28;20475;-75
2022/11/12 11:38:14;;;;;;;11.73;6.50;;;;;;;12.74;71.50;102976.94;4989079;28;20394;-76
2022/11/12 11:41:06;;;;;;;8.48;6.63;;;;;;;12.86;71.12;102971.09;5004998;28;20031;-76
2022/11/12 11:44:05;;;;;;;8.32;6.55;;;;;;;13.00;72.94;102967.75;4989490;28;20026;-76
2022/11/12 11:46:57;;;;;;;7.93;6.50;;;;;;;13.15;72.79;102961.69;4988714;28;20023;-76
2022/11/12 11:49:46;;;;;;;7.10;6.03;;;;;;;13.29;68.40;102953.09;4989849;28;20022;-76
2022/11/12 11:52:42;;;;;;;8.63;5.30;;;;;;;13.36;69.55;102957.97;4989020;28;20044;-76